createdAt,value
2024-03-05T00:01:11.564Z,6.93
2024-03-05T00:03:38.722Z,7.10
2024-03-05T00:06:07.578Z,7.35
2024-03-05T00:08:34.720Z,7.57
2024-03-05T00:11:02.034Z,7.43
2024-03-05T00:13:29.105Z,7.28
2024-03-05T00:15:59.065Z,7.22
2024-03-05T00:18:26.346Z,7.03
2024-03-05T00:20:53.601Z,6.95
2024-03-05T00:23:20.525Z,7.50
2024-03-05T00:25:47.557Z,7.40
2024-03-05T00:28:15.926Z,8.23
2024-03-05T00:30:42.899Z,8.07
2024-03-05T00:33:10.175Z,8.48
2024-03-05T00:35:43.185Z,7.20
2024-03-05T00:38:18.337Z,7.35
2024-03-05T00:40:50.800Z,7.25
2024-03-05T00:43:17.956Z,6.80
2024-03-05T00:45:46.424Z,8.30
2024-03-05T00:48:13.600Z,7.78
2024-03-05T00:50:41.802Z,7.38
2024-03-05T00:53:09.134Z,7.47
2024-03-05T00:55:38.641Z,8.20
2024-03-05T00:58:06.100Z,8.68
2024-03-05T01:00:34.887Z,7.75
2024-03-05T01:03:01.954Z,7.78
2024-03-05T01:05:29.102Z,8.30
2024-03-05T01:07:56.162Z,8.00
2024-03-05T01:10:23.325Z,8.70
2024-03-05T01:12:51.133Z,8.35
2024-03-05T01:15:18.205Z,8.45
2024-03-05T01:17:45.133Z,8.32
2024-03-05T01:20:17.418Z,8.50
2024-03-05T01:22:44.583Z,10.00
2024-03-05T01:25:12.502Z,10.32
2024-03-05T01:27:42.451Z,10.23
2024-03-05T01:30:12.526Z,9.98
2024-03-05T01:32:40.360Z,9.77
2024-03-05T01:35:11.762Z,10.30
2024-03-05T01:40:07.392Z,10.48
2024-03-05T01:42:34.865Z,10.02
2024-03-05T01:45:01.884Z,10.25
2024-03-05T01:47:30.165Z,10.18
2024-03-05T01:49:57.458Z,10.40
2024-03-05T01:52:27.062Z,10.40
2024-03-05T01:54:59.944Z,9.80
2024-03-05T01:57:28.308Z,10.18
2024-03-05T01:59:55.398Z,9.57
2024-03-05T02:02:24.588Z,10.55
2024-03-05T02:04:54.241Z,10.57
2024-03-05T02:07:24.085Z,11.25
2024-03-05T02:09:53.667Z,9.77
2024-03-05T02:12:21.267Z,10.52
2024-03-05T02:14:55.237Z,10.45
2024-03-05T02:17:22.760Z,9.80
2024-03-05T02:19:52.285Z,10.55
2024-03-05T02:22:19.984Z,10.68
2024-03-05T02:24:46.960Z,15.32
2024-03-05T02:27:20.334Z,18.88
2024-03-05T02:29:53.512Z,11.93
2024-03-05T02:32:20.619Z,11.43
2024-03-05T02:34:48.445Z,10.68
2024-03-05T02:37:16.080Z,12.48
2024-03-05T02:39:44.157Z,12.60
2024-03-05T02:42:11.446Z,12.05
2024-03-05T02:44:38.631Z,12.55
2024-03-05T02:47:06.034Z,13.10
2024-03-05T02:49:35.589Z,13.05
2024-03-05T02:52:04.409Z,12.40
2024-03-05T02:54:33.776Z,12.50
2024-03-05T02:57:01.016Z,13.18
2024-03-05T02:59:28.962Z,11.23
2024-03-05T03:01:55.911Z,12.43
2024-03-05T03:04:23.034Z,12.32
2024-03-05T03:06:50.120Z,10.95
2024-03-05T03:09:17.317Z,12.05
2024-03-05T03:11:49.181Z,11.40
2024-03-05T03:14:16.800Z,11.82
2024-03-05T03:16:45.199Z,11.70
2024-03-05T03:19:12.661Z,11.52
2024-03-05T03:21:39.683Z,11.20
2024-03-05T03:24:06.828Z,10.70
2024-03-05T03:26:34.460Z,10.85
2024-03-05T03:29:01.800Z,10.98
2024-03-05T03:31:29.024Z,11.45
2024-03-05T03:33:57.187Z,10.80
2024-03-05T03:36:27.687Z,11.15
2024-03-05T03:38:55.222Z,12.13
2024-03-05T03:41:29.191Z,10.95
2024-03-05T03:43:56.408Z,10.60
2024-03-05T03:46:23.602Z,11.18
2024-03-05T03:48:50.687Z,13.27
2024-03-05T03:51:19.089Z,12.90
2024-03-05T03:53:48.488Z,11.23
2024-03-05T03:56:18.320Z,12.20
2024-03-05T03:58:45.266Z,12.38
2024-03-05T04:01:12.351Z,11.73
2024-03-05T04:03:40.979Z,13.05
2024-03-05T04:06:08.076Z,11.93
2024-03-05T04:08:35.364Z,12.82
2024-03-05T04:11:03.280Z,11.95
2024-03-05T04:13:30.416Z,13.10
2024-03-05T04:15:57.438Z,12.68
2024-03-05T04:18:28.139Z,12.52
2024-03-05T04:20:55.093Z,13.32
2024-03-05T04:23:23.081Z,12.07
2024-03-05T04:25:51.623Z,12.82
2024-03-05T04:28:21.566Z,13.43
2024-03-05T04:30:50.070Z,13.50
2024-03-05T04:33:18.462Z,13.00
2024-03-05T04:35:45.741Z,13.57
2024-03-05T04:38:12.900Z,14.32
2024-03-05T04:40:41.514Z,13.95
2024-03-05T04:43:21.785Z,15.38
2024-03-05T04:45:49.479Z,13.75
2024-03-05T04:48:16.657Z,15.27
2024-03-05T04:50:44.026Z,16.15
2024-03-05T04:53:10.992Z,15.73
2024-03-05T04:55:38.023Z,15.65
2024-03-05T04:58:06.811Z,17.67
2024-03-05T05:00:33.992Z,18.67
2024-03-05T05:03:04.404Z,18.10
2024-03-05T05:05:34.291Z,16.77
2024-03-05T05:08:01.782Z,18.48
2024-03-05T05:10:30.635Z,18.60
2024-03-05T05:12:57.763Z,18.33
2024-03-05T05:15:25.240Z,18.27
2024-03-05T05:17:55.393Z,19.60
2024-03-05T05:20:23.135Z,18.58
2024-03-05T05:22:50.226Z,18.70
2024-03-05T05:25:18.300Z,19.38
2024-03-05T05:27:45.246Z,20.27
2024-03-05T05:30:14.476Z,21.33
2024-03-05T05:32:42.194Z,22.17
2024-03-05T05:35:11.269Z,21.70
2024-03-05T05:37:38.683Z,23.38
2024-03-05T05:40:07.101Z,22.95
2024-03-05T05:42:34.411Z,23.30
2024-03-05T05:45:01.983Z,22.83
2024-03-05T05:47:29.150Z,23.27
2024-03-05T05:49:56.410Z,22.73
2024-03-05T05:52:23.970Z,22.67
2024-03-05T05:54:51.308Z,22.98
2024-03-05T05:57:19.350Z,24.20
2024-03-05T05:59:46.529Z,23.27
2024-03-05T06:02:14.681Z,23.58
2024-03-05T06:05:03.427Z,23.80
2024-03-05T06:07:34.374Z,25.23
2024-03-05T06:10:01.345Z,26.88
2024-03-05T06:12:28.899Z,25.63
2024-03-05T06:14:55.824Z,25.20
2024-03-05T06:17:25.459Z,25.77
2024-03-05T06:19:52.643Z,29.77
2024-03-05T06:22:27.139Z,33.28
2024-03-05T07:00:43.315Z,40.50
2024-03-05T07:03:13.304Z,40.72
2024-03-05T07:05:40.330Z,41.53
2024-03-05T07:08:10.258Z,43.00
2024-03-05T07:10:37.275Z,45.80
2024-03-05T07:13:04.656Z,42.55
2024-03-05T07:15:31.846Z,42.28
2024-03-05T07:17:58.796Z,44.15
2024-03-05T07:20:28.937Z,42.05
2024-03-05T07:22:57.345Z,47.72
2024-03-05T07:25:24.383Z,47.53
2024-03-05T07:27:51.973Z,44.15
2024-03-05T07:30:23.030Z,47.50
2024-03-05T07:32:50.316Z,47.28
2024-03-05T07:35:18.878Z,45.70
2024-03-05T07:37:47.822Z,46.58
2024-03-05T07:40:21.874Z,46.33
2024-03-05T07:42:55.116Z,47.92
2024-03-05T07:45:24.216Z,46.30
2024-03-05T07:47:52.369Z,46.78
2024-03-05T07:50:19.416Z,49.25
2024-03-05T07:52:48.209Z,48.28
2024-03-05T07:55:26.154Z,46.92
2024-03-05T07:57:58.490Z,47.63
2024-03-05T08:00:26.025Z,48.20
2024-03-05T08:02:54.900Z,48.35
2024-03-05T08:05:22.854Z,47.20
2024-03-05T08:07:50.916Z,47.15
2024-03-05T08:10:18.466Z,48.90
2024-03-05T08:12:49.577Z,48.22
2024-03-05T08:15:17.776Z,51.50
2024-03-05T08:17:49.655Z,46.17
2024-03-05T08:20:17.950Z,49.88
2024-03-05T08:22:47.594Z,47.72
2024-03-05T08:25:18.816Z,44.25
2024-03-05T08:27:55.648Z,46.55
2024-03-05T08:30:24.699Z,45.67
2024-03-05T08:32:54.148Z,45.00
2024-03-05T08:35:21.836Z,45.85
2024-03-05T08:37:51.225Z,44.67
2024-03-05T08:40:22.445Z,45.50
2024-03-05T08:42:57.141Z,43.53
2024-03-05T08:45:25.173Z,45.55
2024-03-05T08:47:56.834Z,45.08
2024-03-05T08:50:25.105Z,43.63
2024-03-05T08:52:52.059Z,36.67
2024-03-05T08:55:19.539Z,43.65
2024-03-05T08:57:46.929Z,42.45
2024-03-05T09:00:33.453Z,43.33
2024-03-05T09:03:09.501Z,40.28
2024-03-05T09:05:37.205Z,43.95
2024-03-05T09:08:06.646Z,43.42
2024-03-05T09:10:35.532Z,44.05
2024-03-05T09:13:05.070Z,44.88
2024-03-05T09:15:32.009Z,44.00
2024-03-05T09:17:59.248Z,41.88
2024-03-05T09:20:26.292Z,41.90
2024-03-05T09:22:55.558Z,45.97
2024-03-05T09:25:22.708Z,43.83
2024-03-05T09:27:49.672Z,43.40
2024-03-05T09:30:19.699Z,41.47
2024-03-05T09:32:48.184Z,46.03
2024-03-05T09:35:17.157Z,43.13
2024-03-05T09:37:47.030Z,44.90
2024-03-05T09:40:20.901Z,44.13
2024-03-05T09:42:48.673Z,46.00
2024-03-05T09:45:18.484Z,45.13
2024-03-05T09:47:49.006Z,44.90
2024-03-05T09:50:18.272Z,43.95
2024-03-05T09:52:48.093Z,44.25
2024-03-05T09:55:19.100Z,45.55
2024-03-05T09:57:49.393Z,45.15
2024-03-05T10:00:19.693Z,45.80
2024-03-05T10:02:49.184Z,43.92
2024-03-05T10:05:23.646Z,40.78
2024-03-05T10:07:51.010Z,43.88
2024-03-05T10:10:23.063Z,42.35
2024-03-05T10:12:53.651Z,41.00
2024-03-05T10:15:27.639Z,41.15
2024-03-05T10:17:56.664Z,41.97
2024-03-05T10:20:39.862Z,41.35
2024-03-05T10:23:08.546Z,41.03
2024-03-05T10:25:37.055Z,43.05
2024-03-05T10:28:05.194Z,40.45
2024-03-05T10:30:34.739Z,42.08
2024-03-05T10:33:04.211Z,38.67
2024-03-05T10:35:35.336Z,41.65
2024-03-05T10:38:04.983Z,40.38
2024-03-05T10:40:39.572Z,39.97
2024-03-05T10:43:08.348Z,40.05
2024-03-05T10:45:39.508Z,38.20
2024-03-05T10:48:12.209Z,39.15
2024-03-05T10:50:42.053Z,38.08
2024-03-05T10:53:10.671Z,38.28
2024-03-05T10:55:39.259Z,38.05
2024-03-05T10:58:20.120Z,36.60
2024-03-05T11:00:48.697Z,36.85
2024-03-05T11:03:18.437Z,37.95
2024-03-05T11:05:51.370Z,36.17
2024-03-05T11:08:21.167Z,34.55
2024-03-05T11:10:58.701Z,33.22
2024-03-05T11:13:27.688Z,34.15
2024-03-05T11:15:56.040Z,34.72
2024-03-05T11:18:34.604Z,34.75
2024-03-05T11:21:10.188Z,34.22
2024-03-05T11:23:43.075Z,33.20
2024-03-05T11:26:19.316Z,33.78
2024-03-05T11:28:46.328Z,34.45
2024-03-05T11:31:20.621Z,35.05
2024-03-05T11:33:58.876Z,33.88
2024-03-05T11:36:26.144Z,34.15
2024-03-05T11:39:08.538Z,32.03
2024-03-05T11:41:42.569Z,31.40
2024-03-05T11:44:12.786Z,31.58
2024-03-05T11:46:44.959Z,30.42
2024-03-05T12:03:05.047Z,32.00
2024-03-05T12:05:32.021Z,34.92
2024-03-05T12:08:09.900Z,34.97
2024-03-05T12:10:37.806Z,35.03
2024-03-05T12:13:06.315Z,33.72
2024-03-05T12:15:35.902Z,31.67
2024-03-05T12:18:12.462Z,30.40
2024-03-05T12:20:43.481Z,31.85
2024-03-05T12:23:12.165Z,32.22
2024-03-05T12:25:39.392Z,30.63
2024-03-05T12:28:06.828Z,31.35
2024-03-05T12:46:51.079Z,32.10
2024-03-05T14:08:21.747Z,29.30
2024-03-05T14:30:30.085Z,29.83
2024-03-05T14:33:00.986Z,23.75
2024-03-05T14:38:18.190Z,29.42
2024-03-05T14:59:41.229Z,29.35
2024-03-05T15:10:17.299Z,28.77
2024-03-05T15:12:49.653Z,28.58
2024-03-05T15:15:17.796Z,27.83
2024-03-05T15:20:33.452Z,28.38
2024-03-05T15:28:21.215Z,29.23
2024-03-05T15:30:48.069Z,30.27
2024-03-05T15:33:15.094Z,27.20
2024-03-05T15:35:42.076Z,25.80
2024-03-05T15:38:09.494Z,26.00
2024-03-05T15:40:39.015Z,25.95
2024-03-05T15:43:08.250Z,25.75
2024-03-05T15:45:38.303Z,27.70
2024-03-05T15:48:06.518Z,24.45
2024-03-05T15:50:33.510Z,24.17
2024-03-05T15:53:03.403Z,23.25
2024-03-05T15:55:30.872Z,23.45
2024-03-05T15:58:09.337Z,21.77
2024-03-05T16:00:38.183Z,21.27
2024-03-05T16:03:13.879Z,23.55
2024-03-05T16:05:56.217Z,22.05
2024-03-05T16:08:31.455Z,21.67
2024-03-05T16:11:00.593Z,26.95
2024-03-05T16:16:04.203Z,21.55
2024-03-05T16:18:32.947Z,20.50
2024-03-05T16:23:32.232Z,21.80
2024-03-05T16:25:59.359Z,22.25
2024-03-05T16:28:26.507Z,22.45
2024-03-05T16:30:53.596Z,20.73
2024-03-05T16:33:20.660Z,21.10
2024-03-05T16:35:48.295Z,21.20
2024-03-05T16:38:15.781Z,21.13
2024-03-05T16:40:43.011Z,21.45
2024-03-05T16:43:11.423Z,21.75
2024-03-05T16:45:39.093Z,20.98
2024-03-05T16:48:30.016Z,23.27
2024-03-05T16:51:01.131Z,23.38
2024-03-05T16:53:28.341Z,22.98
2024-03-05T16:55:56.490Z,24.98
2024-03-05T16:58:26.375Z,23.80
2024-03-05T17:00:56.231Z,28.90
2024-03-05T17:03:28.389Z,32.53
2024-03-05T17:05:55.512Z,30.80
2024-03-05T17:08:25.053Z,23.52
2024-03-05T17:11:02.579Z,27.23
2024-03-05T17:13:33.318Z,24.58
2024-03-05T17:16:02.010Z,26.83
2024-03-05T17:18:33.520Z,26.58
2024-03-05T17:21:01.060Z,29.23
2024-03-05T17:23:28.624Z,27.75
2024-03-05T17:25:59.492Z,24.17
2024-03-05T17:28:30.571Z,28.17
2024-03-05T17:31:00.811Z,30.00
2024-03-05T17:33:27.989Z,31.58
2024-03-05T17:35:58.940Z,33.00
2024-03-05T17:38:31.568Z,33.25
2024-03-05T17:41:00.212Z,37.42
2024-03-05T17:43:28.670Z,37.58
2024-03-05T17:45:59.413Z,35.53
2024-03-05T17:48:28.841Z,35.40
2024-03-05T17:51:00.524Z,42.65
2024-03-05T18:06:58.324Z,33.95
2024-03-05T18:09:25.370Z,33.67
2024-03-05T18:11:54.489Z,32.10
2024-03-05T18:14:27.598Z,33.47
2024-03-05T18:16:55.837Z,31.95
2024-03-05T18:19:22.788Z,32.05
2024-03-05T18:21:49.829Z,34.05
2024-03-05T18:24:17.611Z,31.23
2024-03-05T18:26:45.769Z,31.63
2024-03-05T18:29:16.640Z,28.85
2024-03-05T18:31:49.500Z,31.77
2024-03-05T18:34:16.555Z,29.98
2024-03-05T18:36:43.564Z,27.58
2024-03-05T18:39:26.809Z,30.55
2024-03-05T18:41:55.870Z,30.67
2024-03-05T18:44:26.837Z,32.33
2024-03-05T18:46:55.188Z,33.90
2024-03-05T18:49:22.849Z,32.58
2024-03-05T18:51:53.736Z,31.30
2024-03-05T18:54:21.024Z,32.03
2024-03-05T18:56:48.212Z,31.83
2024-03-05T18:59:18.177Z,32.38
2024-03-05T19:01:48.865Z,32.63
2024-03-05T19:04:17.897Z,34.03
2024-03-05T19:06:45.296Z,33.30
2024-03-05T19:09:19.598Z,35.25
2024-03-05T19:11:48.477Z,34.53
2024-03-05T19:14:19.157Z,33.08
2024-03-05T19:19:30.112Z,35.20
2024-03-05T19:21:59.908Z,33.63
2024-03-05T19:24:30.831Z,34.38
2024-03-05T19:26:58.463Z,32.50
2024-03-05T19:29:29.615Z,32.80
2024-03-05T19:31:58.292Z,33.30
2024-03-05T19:34:26.765Z,35.60
2024-03-05T19:36:55.368Z,43.28
2024-03-05T19:39:24.629Z,46.28
2024-03-05T19:41:53.477Z,47.10
2024-03-05T19:44:22.541Z,41.05
2024-03-05T19:46:52.123Z,39.92
2024-03-05T19:49:21.024Z,39.50
2024-03-05T19:52:22.232Z,36.47
2024-03-05T19:54:52.182Z,39.50
2024-03-05T19:57:22.002Z,43.03
2024-03-05T19:59:50.564Z,39.45
2024-03-05T20:02:19.005Z,43.50
2024-03-05T20:04:47.431Z,41.33
2024-03-05T20:07:15.930Z,39.00
2024-03-05T20:09:44.473Z,38.03
2024-03-05T20:12:18.399Z,37.58
2024-03-05T20:17:28.368Z,45.80
2024-03-05T20:20:18.784Z,40.30
2024-03-05T20:22:48.377Z,38.55
2024-03-05T20:25:23.862Z,39.28
2024-03-05T20:27:56.374Z,38.15
2024-03-05T20:30:24.083Z,37.92
2024-03-05T20:32:53.131Z,36.97
2024-03-05T20:35:20.760Z,35.25
2024-03-05T20:37:49.325Z,36.08
2024-03-05T20:40:17.777Z,35.95
2024-03-05T20:42:49.445Z,35.95
2024-03-05T20:45:17.501Z,38.85
2024-03-05T20:47:44.733Z,38.75
2024-03-05T20:50:25.554Z,38.22
2024-03-05T20:53:01.787Z,39.87
2024-03-05T20:55:36.238Z,41.58
2024-03-05T21:00:48.604Z,42.03
2024-03-05T21:03:19.936Z,42.55
2024-03-05T21:05:47.004Z,39.75
2024-03-05T21:08:14.119Z,37.78
2024-03-05T21:10:43.866Z,38.63
2024-03-05T21:13:11.008Z,38.50
2024-03-05T21:15:40.903Z,38.63
2024-03-05T21:18:11.078Z,38.65
2024-03-05T21:20:38.145Z,37.65
2024-03-05T21:23:05.717Z,36.20
2024-03-05T21:25:40.283Z,35.75
2024-03-05T21:28:17.658Z,36.47
2024-03-05T21:30:45.576Z,35.13
2024-03-05T21:33:12.516Z,38.67
2024-03-05T21:35:40.994Z,39.53
2024-03-05T21:38:08.458Z,43.08
2024-03-05T21:40:35.852Z,43.00
2024-03-05T21:43:04.966Z,44.05
2024-03-05T21:45:32.796Z,43.65
2024-03-05T21:47:59.887Z,43.50
2024-03-05T21:50:27.049Z,41.97
2024-03-05T21:52:56.466Z,40.88
2024-03-05T21:55:23.514Z,39.63
2024-03-05T21:57:50.576Z,38.65
2024-03-05T22:00:18.326Z,38.40
2024-03-05T22:02:47.665Z,40.08
2024-03-05T22:05:14.826Z,39.85
2024-03-05T22:07:42.085Z,42.65
2024-03-05T22:10:09.923Z,42.65
2024-03-05T22:12:41.277Z,43.13
2024-03-05T22:15:11.773Z,42.42
2024-03-05T22:17:39.401Z,41.70
2024-03-05T22:20:08.281Z,42.17
2024-03-05T22:22:36.311Z,40.50
2024-03-05T22:25:07.878Z,39.45
2024-03-05T22:27:35.156Z,40.08
2024-03-05T22:30:04.287Z,40.90
2024-03-05T22:35:12.353Z,40.37
2024-03-05T22:37:42.098Z,43.75
2024-03-05T22:40:11.822Z,40.15
2024-03-05T22:42:39.677Z,40.50
2024-03-05T22:45:10.393Z,41.78
2024-03-05T22:47:37.711Z,42.45
2024-03-05T22:50:07.619Z,41.63
2024-03-05T22:52:35.026Z,42.92
2024-03-05T22:55:02.239Z,44.05
2024-03-05T22:57:29.157Z,44.35
2024-03-05T22:59:56.180Z,45.50
2024-03-05T23:02:23.306Z,46.22
2024-03-05T23:04:50.459Z,44.95
2024-03-05T23:07:19.147Z,47.65
2024-03-05T23:09:46.451Z,49.90
2024-03-05T23:12:16.546Z,45.08
2024-03-05T23:14:43.592Z,46.25
2024-03-05T23:17:17.278Z,45.47
2024-03-05T23:19:45.502Z,44.60
2024-03-05T23:22:13.809Z,44.40
2024-03-05T23:24:41.506Z,42.70
2024-03-05T23:27:08.950Z,44.17
2024-03-05T23:29:41.488Z,43.97
2024-03-05T23:32:10.288Z,42.58
2024-03-05T23:34:37.450Z,45.40
2024-03-05T23:37:05.840Z,42.67
2024-03-05T23:39:35.292Z,43.97
2024-03-05T23:42:05.946Z,43.13
2024-03-05T23:44:34.535Z,43.65
2024-03-05T23:47:02.021Z,42.63
2024-03-05T23:49:29.592Z,43.20
2024-03-05T23:51:58.685Z,45.17
2024-03-05T23:54:36.315Z,41.63
2024-03-05T23:57:04.243Z,44.22
2024-03-05T23:59:31.506Z,42.60
